createdAt,value
2018-09-03T00:04:16.022Z,95575.03
2018-09-03T00:06:44.525Z,95566.50
2018-09-03T00:09:12.928Z,95566.05
2018-09-03T00:11:41.361Z,95556.59
2018-09-03T00:14:09.785Z,95547.24
2018-09-03T00:16:38.240Z,95544.11
2018-09-03T00:19:07.371Z,95539.16
2018-09-03T00:21:35.796Z,95533.09
2018-09-03T00:24:04.326Z,95530.16
2018-09-03T00:26:32.735Z,95532.14
2018-09-03T00:29:01.164Z,95532.88
2018-09-03T00:31:34.969Z,95525.85
2018-09-03T00:34:08.661Z,95525.38
2018-09-03T00:36:42.396Z,95529.75
2018-09-03T00:39:16.252Z,95530.39
2018-09-03T00:41:49.980Z,95517.94
2018-09-03T00:44:23.558Z,95525.47
2018-09-03T00:46:56.711Z,95538.94
2018-09-03T00:49:25.228Z,95545.48
2018-09-03T00:51:53.699Z,95545.39
2018-09-03T00:54:22.438Z,95539.33
2018-09-03T00:56:50.947Z,95534.06
2018-09-03T00:59:19.531Z,95526.52
2018-09-03T01:01:48.023Z,95527.52
2018-09-03T01:04:16.828Z,95531.76
2018-09-03T01:07:01.091Z,95530.35
2018-09-03T01:09:29.557Z,95527.55
2018-09-03T01:11:57.974Z,95517.39
2018-09-03T01:14:26.489Z,95509.03
2018-09-03T01:16:54.911Z,95510.59
2018-09-03T01:19:23.348Z,95504.84
2018-09-03T01:21:51.741Z,95498.14
2018-09-03T01:24:20.216Z,95496.84
2018-09-03T01:26:48.663Z,95498.11
2018-09-03T01:29:17.124Z,95502.97
2018-09-03T01:31:45.557Z,95500.06
2018-09-03T01:34:13.950Z,95497.76
2018-09-03T01:36:42.905Z,95501.59
2018-09-03T01:39:11.309Z,95506.83
2018-09-03T01:41:39.741Z,95506.13
2018-09-03T01:44:08.253Z,95501.72
2018-09-03T01:46:36.669Z,95498.30
2018-09-03T01:49:05.161Z,95491.41
2018-09-03T01:51:33.596Z,95489.43
2018-09-03T01:54:02.006Z,95482.38
2018-09-03T01:56:30.445Z,95488.25
2018-09-03T01:58:58.848Z,95480.20
2018-09-03T02:01:27.301Z,95484.42
2018-09-03T02:03:55.825Z,95491.31
2018-09-03T02:06:24.273Z,95495.91
2018-09-03T02:08:52.689Z,95495.91
2018-09-03T02:11:21.133Z,95497.53
2018-09-03T02:13:49.567Z,95490.58
2018-09-03T02:16:24.008Z,95484.67
2018-09-03T02:18:52.473Z,95480.63
2018-09-03T02:21:20.949Z,95483.02
2018-09-03T02:23:49.465Z,95474.88
2018-09-03T02:29:20.446Z,95485.89
2018-09-03T02:31:48.878Z,95491.22
2018-09-03T02:34:17.335Z,95484.45
2018-09-03T02:36:45.815Z,95481.52
2018-09-03T02:39:14.309Z,95473.66
2018-09-03T02:41:42.722Z,95479.38
2018-09-03T02:44:11.208Z,95477.40
2018-09-03T02:49:42.355Z,95470.38
2018-09-03T02:52:10.766Z,95462.53
2018-09-03T02:54:39.205Z,95467.48
2018-09-03T02:57:07.635Z,95461.31
2018-09-03T02:59:36.161Z,95458.47
2018-09-03T03:02:04.636Z,95465.78
2018-09-03T03:04:33.146Z,95461.50
2018-09-03T03:07:01.650Z,95468.30
2018-09-03T03:09:30.085Z,95457.45
2018-09-03T03:11:58.550Z,95452.58
2018-09-03T03:14:26.981Z,95446.99
2018-09-03T03:16:55.446Z,95454.23
2018-09-03T03:19:23.897Z,95449.16
2018-09-03T03:21:52.305Z,95443.92
2018-09-03T03:24:20.914Z,95434.45
2018-09-03T03:26:49.356Z,95431.58
2018-09-03T03:29:17.756Z,95433.84
2018-09-03T03:31:46.201Z,95431.54
2018-09-03T03:34:14.642Z,95430.36
2018-09-03T03:36:43.106Z,95425.16
2018-09-03T03:39:11.543Z,95430.94
2018-09-03T03:41:39.986Z,95420.77
2018-09-03T03:44:08.485Z,95423.54
2018-09-03T03:46:36.945Z,95417.92
2018-09-03T03:49:05.492Z,95415.76
2018-09-03T03:51:33.999Z,95412.41
2018-09-03T03:54:02.421Z,95420.95
2018-09-03T03:56:30.926Z,95414.26
2018-09-03T03:58:59.369Z,95415.44
2018-09-03T04:01:27.809Z,95409.06
2018-09-03T04:03:56.241Z,95409.22
2018-09-03T04:06:24.713Z,95407.20
2018-09-03T04:08:53.140Z,95408.33
2018-09-03T04:11:21.532Z,95401.15
2018-09-03T04:13:49.981Z,95406.44
2018-09-03T04:16:18.446Z,95400.60
2018-09-03T04:18:46.885Z,95403.54
2018-09-03T04:21:15.281Z,95406.95
2018-09-03T04:23:43.755Z,95410.69
2018-09-03T04:26:12.153Z,95408.70
2018-09-03T04:28:40.672Z,95414.26
2018-09-03T04:31:09.077Z,95412.91
2018-09-03T04:33:37.505Z,95415.78
2018-09-03T04:36:05.968Z,95420.37
2018-09-03T04:38:34.442Z,95423.09
2018-09-03T04:41:02.885Z,95416.68
2018-09-03T04:43:31.357Z,95412.59
2018-09-03T04:46:00.129Z,95419.36
2018-09-03T04:48:28.581Z,95414.03
2018-09-03T04:50:57.037Z,95413.17
2018-09-03T04:53:25.489Z,95410.23
2018-09-03T04:55:53.919Z,95414.67
2018-09-03T04:58:22.364Z,95411.29
2018-09-03T05:00:50.800Z,95417.16
2018-09-03T05:03:19.246Z,95419.08
2018-09-03T05:05:47.786Z,95420.35
2018-09-03T05:08:18.050Z,95421.98
2018-09-03T05:10:46.541Z,95418.98
2018-09-03T05:13:14.993Z,95417.31
2018-09-03T05:15:43.437Z,95418.15
2018-09-03T05:18:11.921Z,95418.50
2018-09-03T05:20:40.373Z,95419.52
2018-09-03T05:23:08.847Z,95418.75
2018-09-03T05:25:37.261Z,95425.01
2018-09-03T05:28:05.741Z,95424.91
2018-09-03T05:30:34.184Z,95420.83
2018-09-03T05:33:02.676Z,95418.38
2018-09-03T05:35:31.081Z,95420.03
2018-09-03T05:37:59.537Z,95419.23
2018-09-03T05:40:27.953Z,95421.53
2018-09-03T05:42:56.423Z,95420.83
2018-09-03T05:45:24.884Z,95420.25
2018-09-03T05:47:53.338Z,95414.80
2018-09-03T05:50:21.810Z,95416.39
2018-09-03T05:52:50.229Z,95417.77
2018-09-03T05:55:18.752Z,95412.47
2018-09-03T05:57:47.246Z,95413.39
2018-09-03T06:00:15.789Z,95414.63
2018-09-03T06:02:44.446Z,95406.69
2018-09-03T06:05:12.999Z,95409.62
2018-09-03T06:07:42.033Z,95410.52
2018-09-03T06:10:10.656Z,95408.45
2018-09-03T06:12:39.631Z,95410.11
2018-09-03T06:15:08.351Z,95410.88
2018-09-03T06:17:36.823Z,95420.73
2018-09-03T06:20:05.510Z,95425.39
2018-09-03T06:22:34.131Z,95426.44
2018-09-03T06:25:02.649Z,95427.48
2018-09-03T06:27:31.220Z,95434.91
2018-09-03T06:29:59.775Z,95434.94
2018-09-03T06:32:28.328Z,95432.99
2018-09-03T06:34:56.852Z,95432.06
2018-09-03T06:37:25.400Z,95426.88
2018-09-03T06:39:53.939Z,95428.19
2018-09-03T06:42:22.525Z,95424.71
2018-09-03T06:44:51.113Z,95423.59
2018-09-03T06:47:19.749Z,95421.11
2018-09-03T06:49:48.311Z,95424.55
2018-09-03T06:52:16.854Z,95422.63
2018-09-03T06:54:45.409Z,95428.19
2018-09-03T06:57:14.143Z,95427.23
2018-09-03T06:59:42.748Z,95428.75
2018-09-03T07:02:11.277Z,95437.39
2018-09-03T07:04:40.427Z,95433.18
2018-09-03T07:10:01.152Z,95428.41
2018-09-03T07:12:29.618Z,95425.42
2018-09-03T07:14:58.048Z,95429.27
2018-09-03T07:17:26.508Z,95426.27
2018-09-03T07:19:54.926Z,95420.23
2018-09-03T07:22:23.395Z,95416.81
2018-09-03T07:24:51.801Z,95408.91
2018-09-03T07:27:20.265Z,95412.36
2018-09-03T07:29:48.762Z,95412.87
2018-09-03T07:32:17.174Z,95410.41
2018-09-03T07:34:45.782Z,95403.86
2018-09-03T07:37:14.209Z,95406.64
2018-09-03T07:39:45.826Z,95411.55
2018-09-03T07:42:14.210Z,95400.23
2018-09-03T07:44:42.669Z,95408.27
2018-09-03T07:47:11.064Z,95409.09
2018-09-03T07:49:39.502Z,95405.47
2018-09-03T07:52:07.926Z,95396.09
2018-09-03T07:54:36.386Z,95402.47
2018-09-03T07:57:04.830Z,95399.09
2018-09-03T07:59:33.265Z,95397.63
2018-09-03T08:02:02.097Z,95403.36
2018-09-03T08:04:30.543Z,95404.14
2018-09-03T08:06:59.053Z,95407.26
2018-09-03T08:09:27.530Z,95401.73
2018-09-03T08:11:56.466Z,95403.38
2018-09-03T08:14:24.906Z,95406.38
2018-09-03T08:16:53.373Z,95407.55
2018-09-03T08:19:21.835Z,95407.06
2018-09-03T08:21:50.345Z,95404.20
2018-09-03T08:24:18.772Z,95410.32
2018-09-03T08:26:47.254Z,95410.98
2018-09-03T08:29:15.688Z,95411.73
2018-09-03T08:31:44.191Z,95409.38
2018-09-03T08:34:12.664Z,95414.48
2018-09-03T08:36:41.225Z,95412.23
2018-09-03T08:39:09.648Z,95414.59
2018-09-03T08:41:38.098Z,95417.58
2018-09-03T08:44:06.549Z,95416.92
2018-09-03T08:46:35.038Z,95411.38
2018-09-03T08:49:03.469Z,95414.72
2018-09-03T08:51:31.989Z,95412.01
2018-09-03T08:54:00.413Z,95411.33
2018-09-03T08:56:28.895Z,95407.92
2018-09-03T08:58:57.357Z,95411.45
2018-09-03T09:01:25.825Z,95407.25
2018-09-03T09:03:54.216Z,95413.34
2018-09-03T09:06:22.793Z,95408.09
2018-09-03T09:08:51.262Z,95407.31
2018-09-03T09:11:19.784Z,95406.96
2018-09-03T09:13:48.227Z,95404.99
2018-09-03T09:16:16.684Z,95404.34
2018-09-03T09:18:45.123Z,95400.23
2018-09-03T09:21:13.510Z,95398.77
2018-09-03T09:23:42.438Z,95393.12
2018-09-03T09:26:10.912Z,95396.72
2018-09-03T09:28:39.386Z,95395.42
2018-09-03T09:31:07.861Z,95392.95
2018-09-03T09:33:36.374Z,95391.65
2018-09-03T09:36:04.824Z,95394.11
2018-09-03T09:38:33.314Z,95394.92
2018-09-03T09:41:01.796Z,95393.11
2018-09-03T09:43:30.391Z,95396.83
2018-09-03T09:45:58.857Z,95397.33
2018-09-03T09:48:27.287Z,95395.38
2018-09-03T09:50:55.808Z,95399.47
2018-09-03T09:53:24.311Z,95395.67
2018-09-03T09:55:52.883Z,95394.56
2018-09-03T09:58:21.360Z,95396.72
2018-09-03T10:00:55.046Z,95397.87
2018-09-03T10:03:23.480Z,95404.63
2018-09-03T10:05:51.914Z,95400.99
2018-09-03T10:08:20.361Z,95408.52
2018-09-03T10:10:48.754Z,95407.19
2018-09-03T10:13:17.156Z,95409.27
2018-09-03T10:15:45.638Z,95405.64
2018-09-03T10:18:14.073Z,95400.35
2018-09-03T10:20:42.561Z,95402.65
2018-09-03T10:23:10.957Z,95403.30
2018-09-03T10:25:39.417Z,95401.83
2018-09-03T10:28:07.835Z,95409.85
2018-09-03T10:30:36.611Z,95404.91
2018-09-03T10:33:05.024Z,95406.33
2018-09-03T10:35:33.468Z,95406.46
2018-09-03T10:38:01.889Z,95402.36
2018-09-03T10:40:30.375Z,95403.52
2018-09-03T10:42:58.842Z,95396.97
2018-09-03T10:45:27.374Z,95395.06
2018-09-03T10:47:55.769Z,95396.84
2018-09-03T10:50:24.265Z,95394.70
2018-09-03T10:52:52.665Z,95393.48
2018-09-03T10:55:21.063Z,95385.22
2018-09-03T10:57:50.263Z,95386.94
2018-09-03T11:00:18.660Z,95383.59
2018-09-03T11:02:47.093Z,95383.34
2018-09-03T11:05:15.596Z,95385.29
2018-09-03T11:07:44.037Z,95377.50
2018-09-03T11:10:12.458Z,95380.39
2018-09-03T11:12:40.906Z,95379.67
2018-09-03T11:15:09.395Z,95380.45
2018-09-03T11:17:37.899Z,95387.45
2018-09-03T11:20:08.731Z,95381.63
2018-09-03T11:22:37.170Z,95381.59
2018-09-03T11:25:05.694Z,95375.53
2018-09-03T11:27:34.216Z,95371.62
2018-09-03T11:30:02.668Z,95375.92
2018-09-03T11:32:31.101Z,95374.31
2018-09-03T11:34:59.525Z,95374.36
2018-09-03T11:37:28.029Z,95378.02
2018-09-03T11:39:56.474Z,95374.25
2018-09-03T11:42:24.925Z,95365.91
2018-09-03T11:44:53.386Z,95373.81
2018-09-03T11:47:21.797Z,95367.23
2018-09-03T11:49:50.295Z,95369.27
2018-09-03T11:52:18.690Z,95368.66
2018-09-03T11:54:48.248Z,95365.53
2018-09-03T11:57:16.886Z,95370.31
2018-09-03T11:59:45.317Z,95371.78
2018-09-03T12:02:13.744Z,95371.17
2018-09-03T12:04:42.243Z,95381.18
2018-09-03T12:07:10.687Z,95378.24
2018-09-03T12:09:39.136Z,95373.84
2018-09-03T12:12:07.350Z,95376.66
2018-09-03T12:14:39.530Z,95377.36
2018-09-03T12:17:08.720Z,95375.24
2018-09-03T12:19:37.198Z,95385.28
2018-09-03T12:22:05.817Z,95380.72
2018-09-03T12:24:34.257Z,95379.27
2018-09-03T12:27:02.846Z,95374.67
2018-09-03T12:29:31.286Z,95369.13
2018-09-03T12:31:59.733Z,95372.55
2018-09-03T12:34:28.189Z,95369.64
2018-09-03T12:36:57.549Z,95369.28
2018-09-03T12:39:26.030Z,95365.17
2018-09-03T12:41:54.474Z,95371.78
2018-09-03T12:44:22.913Z,95371.95
2018-09-03T12:46:51.402Z,95364.23
2018-09-03T12:49:19.820Z,95357.34
2018-09-03T12:51:48.267Z,95363.94
2018-09-03T12:54:16.662Z,95364.77
2018-09-03T12:56:45.082Z,95357.06
2018-09-03T12:59:13.490Z,95360.85
2018-09-03T13:01:41.945Z,95352.30
2018-09-03T13:04:10.358Z,95353.96
2018-09-03T13:06:38.793Z,95358.58
2018-09-03T13:09:08.045Z,95352.14
2018-09-03T13:11:36.493Z,95357.58
2018-09-03T13:14:04.937Z,95362.99
2018-09-03T13:16:33.369Z,95359.36
2018-09-03T13:19:01.795Z,95361.84
2018-09-03T13:21:30.241Z,95362.79
2018-09-03T13:23:58.789Z,95357.38
2018-09-03T13:26:27.317Z,95350.94
2018-09-03T13:28:55.712Z,95348.77
2018-09-03T13:31:24.141Z,95346.92
2018-09-03T13:33:52.601Z,95340.14
2018-09-03T13:36:21.068Z,95336.69
2018-09-03T13:38:49.469Z,95335.19
2018-09-03T13:41:18.267Z,95329.12
2018-09-03T13:43:46.754Z,95335.52
2018-09-03T13:46:15.175Z,95330.05
2018-09-03T13:48:43.667Z,95320.82
2018-09-03T13:51:12.069Z,95320.73
2018-09-03T13:53:41.240Z,95320.19
2018-09-03T13:56:09.727Z,95315.65
2018-09-03T13:58:38.277Z,95317.25
2018-09-03T14:01:06.721Z,95306.59
2018-09-03T14:03:35.444Z,95309.55
2018-09-03T14:06:03.894Z,95311.48
2018-09-03T14:08:32.393Z,95309.14
2018-09-03T14:11:00.787Z,95307.70
2018-09-03T14:13:29.827Z,95311.30
2018-09-03T14:15:58.221Z,95312.55
2018-09-03T14:18:27.012Z,95312.62
2018-09-03T14:20:55.458Z,95313.38
2018-09-03T14:23:23.889Z,95304.96
2018-09-03T14:25:52.284Z,95303.14
2018-09-03T14:28:20.745Z,95304.59
2018-09-03T14:30:49.133Z,95299.55
2018-09-03T14:33:19.502Z,95300.48
2018-09-03T14:35:47.910Z,95311.45
2018-09-03T14:38:16.285Z,95305.45
2018-09-03T14:40:44.771Z,95306.52
2018-09-03T14:43:13.236Z,95313.24
2018-09-03T14:45:41.637Z,95305.47
2018-09-03T14:48:10.166Z,95317.25
2018-09-03T14:50:38.595Z,95309.12
2018-09-03T14:53:06.997Z,95306.91
2018-09-03T14:55:35.456Z,95319.89
2018-09-03T14:58:03.829Z,95315.87
2018-09-03T15:00:32.254Z,95318.30
2018-09-03T15:03:00.661Z,95313.52
2018-09-03T15:05:29.069Z,95314.30
2018-09-03T15:07:57.457Z,95315.39
2018-09-03T15:10:25.922Z,95313.72
2018-09-03T15:12:54.314Z,95318.91
2018-09-03T15:15:22.737Z,95310.45
2018-09-03T15:17:51.165Z,95309.77
2018-09-03T15:20:19.662Z,95309.88
2018-09-03T15:22:48.052Z,95309.37
2018-09-03T15:25:16.480Z,95310.40
2018-09-03T15:27:44.878Z,95321.23
2018-09-03T15:30:13.261Z,95312.30
2018-09-03T15:32:41.689Z,95320.55
2018-09-03T15:35:10.076Z,95317.07
2018-09-03T15:37:38.511Z,95317.14
2018-09-03T15:40:06.916Z,95323.48
2018-09-03T15:42:35.353Z,95324.23
2018-09-03T15:45:03.810Z,95334.98
2018-09-03T15:47:32.293Z,95331.94
2018-09-03T15:50:00.733Z,95328.23
2018-09-03T15:52:29.174Z,95328.95
2018-09-03T15:54:57.572Z,95319.91
2018-09-03T15:57:25.990Z,95319.05
2018-09-03T15:59:54.371Z,95313.45
2018-09-03T16:02:22.791Z,95319.45
2018-09-03T16:04:51.229Z,95318.88
2018-09-03T16:07:19.696Z,95314.28
2018-09-03T16:09:49.033Z,95315.74
2018-09-03T16:12:17.468Z,95318.54
2018-09-03T16:14:45.859Z,95317.22
2018-09-03T16:17:14.232Z,95317.80
2018-09-03T16:19:42.685Z,95322.01
2018-09-03T16:22:11.585Z,95323.38
2018-09-03T16:24:40.082Z,95319.97
2018-09-03T16:27:08.465Z,95325.09
2018-09-03T16:29:37.342Z,95327.71
2018-09-03T16:32:05.758Z,95329.03
2018-09-03T16:34:34.177Z,95329.78
2018-09-03T16:37:02.536Z,95329.27
2018-09-03T16:39:30.963Z,95329.27
2018-09-03T16:41:59.411Z,95326.68
2018-09-03T16:44:27.854Z,95319.95
2018-09-03T16:46:56.250Z,95320.98
2018-09-03T16:49:24.658Z,95323.84
2018-09-03T16:51:53.068Z,95313.84
2018-09-03T16:54:21.541Z,95314.55
2018-09-03T16:56:49.949Z,95316.62
2018-09-03T16:59:18.378Z,95318.48
2018-09-03T17:01:46.802Z,95323.67
2018-09-03T17:04:15.329Z,95325.22
2018-09-03T17:06:43.813Z,95331.61
2018-09-03T17:09:12.285Z,95328.39
2018-09-03T17:11:40.715Z,95338.34
2018-09-03T17:14:09.117Z,95330.80
2018-09-03T17:16:37.528Z,95333.77
2018-09-03T17:19:06.293Z,95327.38
2018-09-03T17:21:34.699Z,95330.19
2018-09-03T17:24:03.152Z,95324.80
2018-09-03T17:26:31.573Z,95333.36
2018-09-03T17:29:00.006Z,95333.48
2018-09-03T17:31:28.457Z,95333.17
2018-09-03T17:33:56.837Z,95329.91
2018-09-03T17:36:25.248Z,95333.20
2018-09-03T17:38:53.697Z,95325.16
2018-09-03T17:41:22.122Z,95323.84
2018-09-03T17:43:50.581Z,95334.52
2018-09-03T17:46:19.077Z,95330.91
2018-09-03T17:48:47.545Z,95333.53
2018-09-03T17:51:16.003Z,95338.30
2018-09-03T17:53:44.398Z,95333.20
2018-09-03T17:56:12.820Z,95331.76
2018-09-03T17:58:41.325Z,95340.13
2018-09-03T18:01:11.166Z,95339.81
2018-09-03T18:03:40.152Z,95348.86
2018-09-03T18:06:08.809Z,95352.83
2018-09-03T18:08:37.337Z,95353.66
2018-09-03T18:11:05.785Z,95351.52
2018-09-03T18:13:34.289Z,95350.17
2018-09-03T18:16:02.684Z,95353.95
2018-09-03T18:18:31.213Z,95355.57
2018-09-03T18:20:59.768Z,95356.73
2018-09-03T18:23:28.184Z,95366.95
2018-09-03T18:25:56.606Z,95364.19
2018-09-03T18:28:25.039Z,95373.87
2018-09-03T18:30:53.453Z,95369.45
2018-09-03T18:33:21.897Z,95369.11
2018-09-03T18:35:50.341Z,95369.94
2018-09-03T18:38:18.763Z,95370.11
2018-09-03T18:40:47.281Z,95376.69
2018-09-03T18:43:15.708Z,95369.95
2018-09-03T18:45:44.153Z,95375.23
2018-09-03T18:48:12.593Z,95379.30
2018-09-03T18:50:40.981Z,95376.84
2018-09-03T18:53:09.479Z,95373.73
2018-09-03T18:55:37.873Z,95376.69
2018-09-03T18:58:06.355Z,95382.63
2018-09-03T19:00:34.826Z,95386.09
2018-09-03T19:03:03.281Z,95382.47
2018-09-03T19:05:31.740Z,95384.77
2018-09-03T19:08:00.190Z,95387.05
2018-09-03T19:10:28.612Z,95395.95
2018-09-03T19:12:57.025Z,95392.16
2018-09-03T19:15:25.460Z,95388.22
2018-09-03T19:17:53.855Z,95389.39
2018-09-03T19:20:22.285Z,95381.81
2018-09-03T19:22:50.713Z,95382.97
2018-09-03T19:25:19.169Z,95392.16
2018-09-03T19:27:47.573Z,95389.72
2018-09-03T19:30:16.003Z,95387.77
2018-09-03T19:32:44.421Z,95392.69
2018-09-03T19:35:12.867Z,95384.48
2018-09-03T19:37:41.272Z,95384.16
2018-09-03T19:40:09.761Z,95385.30
2018-09-03T19:42:38.157Z,95387.74
2018-09-03T19:45:06.677Z,95385.30
2018-09-03T19:47:35.096Z,95385.45
2018-09-03T19:50:03.543Z,95386.91
2018-09-03T19:52:31.968Z,95388.73
2018-09-03T19:55:00.402Z,95393.17
2018-09-03T19:57:28.849Z,95391.36
2018-09-03T19:59:57.271Z,95388.59
2018-09-03T20:02:25.932Z,95394.33
2018-09-03T20:04:54.353Z,95389.05
2018-09-03T20:07:22.925Z,95389.40
2018-09-03T20:09:51.337Z,95395.79
2018-09-03T20:12:27.173Z,95395.97
2018-09-03T20:14:55.618Z,95384.81
2018-09-03T20:17:24.593Z,95390.37
2018-09-03T20:19:53.661Z,95387.09
2018-09-03T20:22:22.151Z,95392.37
2018-09-03T20:24:50.694Z,95388.42
2018-09-03T20:27:19.162Z,95392.86
2018-09-03T20:29:47.589Z,95386.61
2018-09-03T20:32:16.050Z,95380.22
2018-09-03T20:34:44.453Z,95383.52
2018-09-03T20:37:12.912Z,95380.05
2018-09-03T20:39:41.322Z,95376.92
2018-09-03T20:42:09.917Z,95374.30
2018-09-03T20:44:38.386Z,95372.98
2018-09-03T20:47:06.859Z,95378.23
2018-09-03T20:49:35.234Z,95374.16
2018-09-03T20:52:03.693Z,95374.66
2018-09-03T20:54:32.197Z,95371.85
2018-09-03T20:57:00.570Z,95368.72
2018-09-03T20:59:29.077Z,95375.45
2018-09-03T21:01:57.401Z,95377.59
2018-09-03T21:04:25.810Z,95372.84
2018-09-03T21:06:54.225Z,95374.64
2018-09-03T21:09:22.699Z,95371.84
2018-09-03T21:11:51.078Z,95369.70
2018-09-03T21:14:19.589Z,95373.33
2018-09-03T21:16:47.925Z,95374.47
2018-09-03T21:19:16.380Z,95366.91
2018-09-03T21:21:44.845Z,95366.91
2018-09-03T21:24:13.270Z,95365.59
2018-09-03T21:26:41.683Z,95365.45
2018-09-03T21:29:10.125Z,95369.70
2018-09-03T21:31:38.530Z,95364.63
2018-09-03T21:34:06.954Z,95363.15
2018-09-03T21:36:35.327Z,95356.42
2018-09-03T21:39:04.531Z,95360.03
2018-09-03T21:41:32.877Z,95361.84
2018-09-03T21:44:01.300Z,95365.30
2018-09-03T21:46:29.740Z,95367.41
2018-09-03T21:48:58.135Z,95368.72
2018-09-03T21:51:26.577Z,95366.58
2018-09-03T21:53:54.977Z,95367.75
2018-09-03T21:56:23.427Z,95363.33
2018-09-03T21:58:51.824Z,95367.75
2018-09-03T22:01:20.305Z,95360.84
2018-09-03T22:03:48.673Z,95362.50
2018-09-03T22:06:17.110Z,95362.50
2018-09-03T22:08:45.548Z,95353.14
2018-09-03T22:11:13.981Z,95352.63
2018-09-03T22:13:42.353Z,95355.77
2018-09-03T22:16:11.278Z,95365.13
2018-09-03T22:18:40.578Z,95358.39
2018-09-03T22:21:09.256Z,95355.60
2018-09-03T22:23:38.448Z,95352.63
2018-09-03T22:26:07.195Z,95354.60
2018-09-03T22:28:35.837Z,95355.74
2018-09-03T22:31:04.708Z,95355.91
2018-09-03T22:33:33.116Z,95356.40
2018-09-03T22:36:01.502Z,95350.49
2018-09-03T22:38:29.921Z,95351.98
2018-09-03T22:40:58.325Z,95345.91
2018-09-03T22:43:26.740Z,95346.42
2018-09-03T22:45:55.173Z,95349.38
2018-09-03T22:48:23.582Z,95349.35
2018-09-03T22:50:51.986Z,95347.73
2018-09-03T22:53:20.441Z,95343.14
2018-09-03T22:55:48.857Z,95349.35
2018-09-03T22:58:17.365Z,95343.31
2018-09-03T23:00:46.029Z,95346.08
2018-09-03T23:03:14.452Z,95338.20
2018-09-03T23:05:42.887Z,95347.73
2018-09-03T23:08:11.284Z,95342.31
2018-09-03T23:10:39.716Z,95340.34
2018-09-03T23:13:08.149Z,95344.45
2018-09-03T23:15:36.612Z,95345.59
2018-09-03T23:18:05.512Z,95337.55
2018-09-03T23:20:33.875Z,95341.80
2018-09-03T23:23:02.302Z,95342.97
2018-09-03T23:25:30.733Z,95341.28
2018-09-03T23:27:59.137Z,95340.94
2018-09-03T23:30:27.581Z,95338.00
2018-09-03T23:32:55.969Z,95343.73
2018-09-03T23:35:24.429Z,95338.48
2018-09-03T23:37:52.811Z,95338.80
2018-09-03T23:40:21.258Z,95337.17
2018-09-03T23:42:49.644Z,95339.97
2018-09-03T23:45:18.153Z,95332.58
2018-09-03T23:47:46.613Z,95331.93
2018-09-03T23:50:15.093Z,95334.20
2018-09-03T23:52:43.478Z,95328.65
2018-09-03T23:55:11.934Z,95326.69
2018-09-03T23:57:40.408Z,95330.27
